Time;durP1;ratioP1;P1;durP2;ratioP2;P2;SDS_P1;SDS_P2;PMS_P1;PMS_P2;Temp;Humidity;BMP_temperature;BMP_pressure;BME280_temperature;BME280_humidity;BME280_pressure;Samples;Min_cycle;Max_cycle;Signal;HPM_P1;HPM_P2
2021/12/23 00:01:02;;;;;;;;;;;;;;;-3.48;81.26;98975.99;1755683;80;22017;-85
2021/12/23 00:03:28;;;;;;;;;;;;;;;-3.48;81.22;98967.04;1757121;80;26120;-84
2021/12/23 00:05:54;;;;;;;;;;;;;;;-3.46;81.20;98964.48;1757547;80;24605;-85
2021/12/23 00:08:21;;;;;;;;;;;;;;;-3.51;81.16;98955.98;1761335;80;20452;-85
2021/12/23 00:10:47;;;;;;;;;;;;;;;-3.57;81.10;98963.27;1751623;80;24851;-84
2021/12/23 00:13:13;;;;;;;;;;;;;;;-3.65;81.02;98950.92;1757818;80;22021;-85
2021/12/23 00:16:00;;;;;;;;;;;;;;;-3.65;80.96;98953.91;1762883;80;26133;-85
2021/12/23 00:18:42;;;;;;;;;;;;;;;-3.70;80.89;98956.49;1777434;80;25030;-85
2021/12/23 00:23:28;;;;;;;;;;;;;;;-3.72;80.79;98944.59;1757587;80;25657;-85
2021/12/23 00:26:00;;;;;;;;;;;;;;;-3.74;80.76;98939.47;1755182;80;22014;-83
2021/12/23 00:28:27;;;;;;;;;;;;;;;-3.74;80.69;98946.30;1755213;81;25974;-84
2021/12/23 00:30:53;;;;;;;;;;;;;;;-3.77;80.63;98939.50;1759442;80;24444;-84
2021/12/23 00:33:21;;;;;;;;;;;;;;;-3.75;80.64;98931.80;1752671;80;20232;-84
2021/12/23 00:35:47;;;;;;;;;;;;;;;-3.78;80.60;98936.52;1757777;80;24771;-84
2021/12/23 00:38:20;;;;;;;;;;;;;;;-3.78;80.59;98930.55;1759167;80;21938;-84
2021/12/23 00:40:47;;;;;;;;;;;;;;;-3.80;80.53;98928.00;1762272;81;26633;-85
2021/12/23 00:43:13;;;;;;;;;;;;;;;-3.77;80.55;98930.98;1764008;80;24397;-84
2021/12/23 00:45:39;;;;;;;;;;;;;;;-3.82;80.50;98931.83;1750993;80;20520;-84
2021/12/23 00:48:05;;;;;;;;;;;;;;;-3.84;80.47;98927.59;1753675;80;25384;-84
2021/12/23 00:50:31;;;;;;;;;;;;;;;-3.82;80.46;98931.83;1753285;80;20225;-85
2021/12/23 00:53:00;;;;;;;;;;;;;;;-3.87;80.43;98928.45;1783184;79;26062;-84
2021/12/23 00:55:25;;;;;;;;;;;;;;;-3.88;80.39;98922.94;1780265;79;24428;-84
2021/12/23 00:57:51;;;;;;;;;;;;;;;-3.89;80.35;98924.22;1774000;79;20257;-84
2021/12/23 01:00:20;;;;;;;;;;;;;;;-3.93;80.31;98922.54;1790424;78;24789;-84
2021/12/23 01:02:48;;;;;;;;;;;;;;;-3.93;80.27;98919.98;1803916;78;22870;-85
2021/12/23 01:05:15;;;;;;;;;;;;;;;-3.93;80.27;98918.25;1797296;78;26129;-84
2021/12/23 01:07:42;;;;;;;;;;;;;;;-3.93;80.26;98919.98;1794511;78;24681;-84
2021/12/23 01:10:09;;;;;;;;;;;;;;;-3.93;80.24;98923.81;1793350;79;20453;-84
2021/12/23 01:12:43;;;;;;;;;;;;;;;-3.97;80.18;98920.83;1793039;79;24961;-84
2021/12/23 01:20:27;;;;;;;;;;;;;;;-4.13;80.03;98903.44;1788919;79;24498;-84
2021/12/23 01:22:52;;;;;;;;;;;;;;;-4.10;79.98;98908.55;1785929;79;20207;-84
2021/12/23 01:25:18;;;;;;;;;;;;;;;-4.07;80.01;98898.72;1794324;79;24731;-84
2021/12/23 01:27:44;;;;;;;;;;;;;;;-4.09;79.99;98897.91;1785872;79;21910;-83
2021/12/23 01:30:11;;;;;;;;;;;;;;;-4.08;80.00;98897.02;1780632;79;26010;-84
2021/12/23 01:32:37;;;;;;;;;;;;;;;-4.05;80.00;98894.05;1795333;79;24399;-84
2021/12/23 01:35:03;;;;;;;;;;;;;;;-4.06;79.99;98894.89;1773756;79;20156;-84
2021/12/23 01:37:29;;;;;;;;;;;;;;;-4.02;80.02;98890.61;1788250;79;24746;-84
2021/12/23 01:39:55;;;;;;;;;;;;;;;-4.00;80.03;98891.03;1781703;79;21971;-84
2021/12/23 01:42:21;;;;;;;;;;;;;;;-3.99;80.05;98884.22;1778626;78;25949;-84
2021/12/23 01:44:47;;;;;;;;;;;;;;;-4.01;80.03;98880.38;1793274;78;24487;-84
2021/12/23 01:47:13;;;;;;;;;;;;;;;-4.03;80.02;98880.81;1776685;78;20359;-84
2021/12/23 01:49:39;;;;;;;;;;;;;;;-4.03;79.98;98873.56;1796743;78;24750;-83
2021/12/23 01:52:06;;;;;;;;;;;;;;;-4.01;79.98;98870.59;1793611;78;22070;-84
2021/12/23 01:54:32;;;;;;;;;;;;;;;-4.02;79.98;98873.99;1773610;80;26166;-84
2021/12/23 01:56:58;;;;;;;;;;;;;;;-4.05;79.93;98867.20;1772245;80;24472;-83
2021/12/23 01:59:24;;;;;;;;;;;;;;;-4.06;79.90;98867.20;1786434;79;20498;-84
2021/12/23 02:01:50;;;;;;;;;;;;;;;-4.10;79.87;98865.53;1775285;79;24747;-84
2021/12/23 02:04:16;;;;;;;;;;;;;;;-4.11;79.81;98864.67;1795585;79;22039;-84
2021/12/23 02:06:42;;;;;;;;;;;;;;;-4.12;79.81;98856.59;1779071;79;25962;-84
2021/12/23 02:09:09;;;;;;;;;;;;;;;-4.12;79.76;98846.79;1784074;79;24455;-84
2021/12/23 02:11:41;;;;;;;;;;;;;;;-4.09;79.76;98848.89;1783294;79;20235;-84
2021/12/23 02:14:07;;;;;;;;;;;;;;;-4.06;79.78;98846.34;1781705;79;24828;-84
2021/12/23 02:16:33;;;;;;;;;;;;;;;-4.06;79.79;98849.31;1788317;79;23018;-84
2021/12/23 02:19:01;;;;;;;;;;;;;;;-4.09;79.77;98851.91;1790141;79;25931;-84
2021/12/23 02:21:27;;;;;;;;;;;;;;;-4.08;79.74;98844.20;1778913;79;24475;-84
2021/12/23 02:23:53;;;;;;;;;;;;;;;-4.05;79.76;98844.63;1786578;79;20867;-84
2021/12/23 02:26:19;;;;;;;;;;;;;;;-4.08;79.74;98839.52;1724826;81;24247;-83
2021/12/23 02:28:45;;;;;;;;;;;;;;;-4.08;79.73;98833.98;1739982;81;22060;-84
2021/12/23 02:31:11;;;;;;;;;;;;;;;-4.10;79.70;98831.88;1732250;81;26038;-84
2021/12/23 02:33:38;;;;;;;;;;;;;;;-4.13;79.67;98828.47;1732066;81;25275;-85
2021/12/23 02:36:04;;;;;;;;;;;;;;;-4.09;79.66;98831.00;1743901;81;20466;-85
2021/12/23 02:38:30;;;;;;;;;;;;;;;-4.06;79.67;98833.55;1747918;81;24804;-84
2021/12/23 02:40:56;;;;;;;;;;;;;;;-4.04;79.70;98833.13;1750221;81;22007;-84
2021/12/23 02:43:23;;;;;;;;;;;;;;;-4.05;79.70;98827.59;1748962;81;26216;-84
2021/12/23 02:45:51;;;;;;;;;;;;;;;-4.01;79.71;98829.27;1743953;81;25176;-84
2021/12/23 02:48:18;;;;;;;;;;;;;;;-3.96;79.75;98827.53;1745759;81;20178;-84
2021/12/23 02:50:46;;;;;;;;;;;;;;;-3.93;79.76;98820.29;1742385;81;26271;-84
2021/12/23 02:53:13;;;;;;;;;;;;;;;-3.95;79.73;98819.02;1745716;80;21930;-84
2021/12/23 02:55:39;;;;;;;;;;;;;;;-3.94;79.73;98816.03;1746909;81;26077;-83
2021/12/23 02:58:05;;;;;;;;;;;;;;;-3.93;79.74;98805.77;1746717;81;24577;-85
2021/12/23 03:00:31;;;;;;;;;;;;;;;-3.91;79.76;98800.23;1748180;81;20267;-84
2021/12/23 03:02:58;;;;;;;;;;;;;;;-3.86;79.77;98802.75;1745176;81;24576;-84
2021/12/23 03:05:24;;;;;;;;;;;;;;;-3.84;79.79;98796.78;1739808;81;21932;-84
2021/12/23 03:07:50;;;;;;;;;;;;;;;-3.91;79.73;98790.01;1741369;81;26107;-84
2021/12/23 03:10:16;;;;;;;;;;;;;;;-3.95;79.70;98783.23;1746368;81;24425;-84
2021/12/23 03:12:42;;;;;;;;;;;;;;;-3.99;79.65;98778.16;1741541;81;20244;-84
2021/12/23 03:15:09;;;;;;;;;;;;;;;-4.01;79.61;98776.88;1754321;81;24775;-84
2021/12/23 03:17:35;;;;;;;;;;;;;;;-3.98;79.58;98772.19;1751142;80;21972;-84
2021/12/23 03:20:01;;;;;;;;;;;;;;;-3.98;79.57;98773.01;1726634;81;25905;-83
2021/12/23 03:22:27;;;;;;;;;;;;;;;-4.00;79.55;98768.36;1752263;81;24524;-84
2021/12/23 03:24:54;;;;;;;;;;;;;;;-4.00;79.56;98759.41;1750690;81;20342;-84
2021/12/23 03:27:20;;;;;;;;;;;;;;;-3.98;79.56;98752.56;1752073;80;24803;-84
2021/12/23 03:29:46;;;;;;;;;;;;;;;-3.99;79.54;98750.03;1752321;80;22075;-84
2021/12/23 03:32:12;;;;;;;;;;;;;;;-3.98;79.54;98750.46;1750299;81;25946;-84
2021/12/23 03:34:38;;;;;;;;;;;;;;;-3.97;79.53;98748.30;1714732;81;24810;-84
2021/12/23 03:37:04;;;;;;;;;;;;;;;-4.04;79.49;98743.69;1749356;80;20203;-84
2021/12/23 03:39:30;;;;;;;;;;;;;;;-4.04;79.43;98742.83;1745996;80;24704;-84
2021/12/23 03:41:56;;;;;;;;;;;;;;;-4.07;79.41;98741.13;1743238;81;22215;-84
2021/12/23 03:44:22;;;;;;;;;;;;;;;-4.10;79.36;98738.61;1720130;81;26516;-84
2021/12/23 03:46:49;;;;;;;;;;;;;;;-4.10;79.33;98742.87;1746041;80;24474;-83
2021/12/23 03:49:15;;;;;;;;;;;;;;;-4.09;79.32;98745.84;1744919;81;20550;-84
2021/12/23 03:51:41;;;;;;;;;;;;;;;-4.05;79.33;98740.70;1746858;79;25519;-85
2021/12/23 03:54:10;;;;;;;;;;;;;;;-4.05;79.33;98744.96;1736323;81;22703;-84
2021/12/23 03:56:36;;;;;;;;;;;;;;;-4.07;79.30;98746.24;1736237;81;25966;-84
2021/12/23 03:59:03;;;;;;;;;;;;;;;-4.03;79.31;98741.52;1739826;81;24331;-84
2021/12/23 04:01:30;;;;;;;;;;;;;;;-4.00;79.31;98744.50;1747181;80;20275;-84
2021/12/23 04:03:57;;;;;;;;;;;;;;;-3.98;79.31;98738.96;1749720;81;24657;-84
2021/12/23 04:06:23;;;;;;;;;;;;;;;-3.93;79.34;98738.03;1736417;81;22040;-85
2021/12/23 04:08:49;;;;;;;;;;;;;;;-3.93;79.34;98738.49;1739728;80;26033;-85
2021/12/23 04:11:15;;;;;;;;;;;;;;;-3.97;79.31;98738.92;1740126;80;24397;-84
2021/12/23 04:13:42;;;;;;;;;;;;;;;-4.01;79.27;98736.41;1737761;80;20168;-84
2021/12/23 04:16:08;;;;;;;;;;;;;;;-4.05;79.21;98737.30;1740886;81;24920;-84
2021/12/23 04:18:34;;;;;;;;;;;;;;;-4.06;79.18;98733.89;1737178;81;21908;-84
2021/12/23 04:21:00;;;;;;;;;;;;;;;-4.04;79.15;98735.16;1737886;81;26014;-84
2021/12/23 04:23:28;;;;;;;;;;;;;;;-4.04;79.13;98728.34;1736887;80;24445;-84
2021/12/23 04:25:54;;;;;;;;;;;;;;;-4.05;79.11;98729.63;1735994;81;20237;-84
2021/12/23 04:28:21;;;;;;;;;;;;;;;-4.08;79.08;98725.80;1743912;81;24789;-84
2021/12/23 04:30:48;;;;;;;;;;;;;;;-4.08;79.07;98725.38;1745598;80;21958;-83
2021/12/23 04:33:14;;;;;;;;;;;;;;;-4.09;79.04;98719.84;1745683;81;25933;-83
2021/12/23 04:35:40;;;;;;;;;;;;;;;-4.10;79.03;98722.42;1741690;80;24381;-83
2021/12/23 04:38:07;;;;;;;;;;;;;;;-4.09;79.02;98713.45;1742648;81;20199;-83
2021/12/23 04:40:38;;;;;;;;;;;;;;;-4.08;79.03;98711.32;1748110;81;24759;-83
2021/12/23 04:43:03;;;;;;;;;;;;;;;-4.10;79.00;98699.00;1741882;81;22812;-83
2021/12/23 04:45:29;;;;;;;;;;;;;;;-4.09;78.99;98697.30;1739117;80;26073;-83
2021/12/23 04:47:55;;;;;;;;;;;;;;;-4.12;78.98;98691.77;1742140;81;24609;-84
2021/12/23 04:50:22;;;;;;;;;;;;;;;-4.17;78.92;98689.67;1745720;80;20180;-84
2021/12/23 04:52:51;;;;;;;;;;;;;;;-4.18;78.89;98684.14;1759316;80;24762;-84
2021/12/23 04:55:18;;;;;;;;;;;;;;;-4.21;78.85;98675.23;1765298;80;22134;-85
2021/12/23 04:57:45;;;;;;;;;;;;;;;-4.22;78.83;98678.22;1760967;80;26004;-83
2021/12/23 05:00:15;;;;;;;;;;;;;;;-4.24;78.81;98672.69;1755145;80;25013;-85
2021/12/23 05:02:41;;;;;;;;;;;;;;;-4.26;78.74;98665.48;1759448;81;20298;-85
2021/12/23 05:05:08;;;;;;;;;;;;;;;-4.30;78.73;98665.91;1754133;81;24788;-84
2021/12/23 05:07:34;;;;;;;;;;;;;;;-4.31;78.73;98664.21;1756826;81;22053;-84
2021/12/23 05:10:00;;;;;;;;;;;;;;;-4.27;78.74;98667.19;1752590;81;26012;-83
2021/12/23 05:12:26;;;;;;;;;;;;;;;-4.28;78.73;98667.19;1761863;81;24368;-84
2021/12/23 05:14:52;;;;;;;;;;;;;;;-4.29;78.70;98662.93;1756515;80;20557;-83
2021/12/23 05:17:18;;;;;;;;;;;;;;;-4.27;78.71;98672.72;1752858;80;25585;-84
2021/12/23 05:19:44;;;;;;;;;;;;;;;-4.26;78.69;98665.48;1757002;81;22077;-83
2021/12/23 05:22:10;;;;;;;;;;;;;;;-4.23;78.72;98655.23;1749724;81;25952;-83
2021/12/23 05:24:37;;;;;;;;;;;;;;;-4.17;78.75;98658.16;1762976;80;25400;-84
2021/12/23 05:27:03;;;;;;;;;;;;;;;-4.19;78.75;98647.09;1756091;81;20288;-85
2021/12/23 05:29:29;;;;;;;;;;;;;;;-4.19;78.76;98638.16;1754681;81;24741;-85
2021/12/23 05:32:00;;;;;;;;;;;;;;;-4.23;78.75;98630.95;1748724;81;22028;-85
2021/12/23 05:34:26;;;;;;;;;;;;;;;-4.24;78.73;98633.94;1756030;81;26015;-84
2021/12/23 05:36:53;;;;;;;;;;;;;;;-4.25;78.71;98632.66;1758347;81;24481;-84
2021/12/23 05:39:19;;;;;;;;;;;;;;;-4.22;78.71;98630.10;1758638;81;20595;-84
2021/12/23 05:41:45;;;;;;;;;;;;;;;-4.22;78.69;98631.38;1754733;81;24798;-84
2021/12/23 05:44:11;;;;;;;;;;;;;;;-4.19;78.69;98637.73;1754656;81;22044;-84
2021/12/23 05:46:37;;;;;;;;;;;;;;;-4.19;78.68;98625.38;1752271;81;25943;-86
2021/12/23 05:49:03;;;;;;;;;;;;;;;-4.16;78.72;98622.39;1765454;81;24506;-86
2021/12/23 05:51:29;;;;;;;;;;;;;;;-4.18;78.70;98624.09;1740441;81;20526;-85
2021/12/23 05:53:55;;;;;;;;;;;;;;;-4.18;78.69;98624.53;1766755;81;24715;-85
2021/12/23 05:56:21;;;;;;;;;;;;;;;-4.15;78.71;98618.13;1763472;81;23000;-85
2021/12/23 05:58:48;;;;;;;;;;;;;;;-4.14;78.70;98612.13;1763489;81;26045;-85
2021/12/23 06:01:14;;;;;;;;;;;;;;;-4.17;78.68;98606.64;1762420;80;25077;-85
2021/12/23 06:03:41;;;;;;;;;;;;;;;-4.16;78.66;98607.06;1753211;81;20239;-84
2021/12/23 06:06:07;;;;;;;;;;;;;;;-4.18;78.67;98613.87;1751801;81;24783;-85
2021/12/23 06:08:33;;;;;;;;;;;;;;;-4.13;78.69;98615.11;1755338;81;22062;-84
2021/12/23 06:11:00;;;;;;;;;;;;;;;-4.13;78.66;98608.72;1753661;81;26009;-84
2021/12/23 06:13:26;;;;;;;;;;;;;;;-4.12;78.66;98604.89;1753214;81;24389;-85
2021/12/23 06:15:53;;;;;;;;;;;;;;;-4.08;78.67;98602.71;1751653;81;20200;-85
2021/12/23 06:18:19;;;;;;;;;;;;;;;-4.09;78.64;98597.18;1755059;81;25653;-84
2021/12/23 06:20:45;;;;;;;;;;;;;;;-4.11;78.60;98599.34;1732238;81;22105;-84
2021/12/23 06:23:11;;;;;;;;;;;;;;;-4.10;78.59;98588.27;1750933;81;25971;-84
2021/12/23 06:25:37;;;;;;;;;;;;;;;-4.10;78.58;98590.83;1754352;81;24411;-84
2021/12/23 06:28:03;;;;;;;;;;;;;;;-4.08;78.60;98581.42;1729761;81;20202;-84
2021/12/23 06:30:30;;;;;;;;;;;;;;;-4.10;78.59;98583.16;1753013;81;20246;-84
2021/12/23 06:32:56;;;;;;;;;;;;;;;-4.08;78.60;98585.25;1755500;81;22046;-84
2021/12/23 06:35:24;;;;;;;;;;;;;;;-4.07;78.62;98582.69;1750699;81;25516;-84
2021/12/23 06:37:50;;;;;;;;;;;;;;;-4.04;78.63;98576.30;1753589;81;24513;-84
2021/12/23 06:40:17;;;;;;;;;;;;;;;-4.05;78.64;98568.63;1748499;81;20267;-85
2021/12/23 06:42:43;;;;;;;;;;;;;;;-4.01;78.67;98563.47;1753690;81;24765;-85
2021/12/23 06:45:09;;;;;;;;;;;;;;;-3.93;78.72;98564.68;1755988;81;21934;-85
2021/12/23 06:47:36;;;;;;;;;;;;;;;-3.92;78.75;98558.25;1753064;81;26025;-85
2021/12/23 06:50:03;;;;;;;;;;;;;;;-3.87;78.80;98553.09;1754223;81;24526;-85
2021/12/23 06:52:30;;;;;;;;;;;;;;;-3.85;78.84;98559.89;1755568;79;20298;-85
2021/12/23 06:54:57;;;;;;;;;;;;;;;-3.82;78.88;98560.31;1766208;81;24809;-85
2021/12/23 06:57:25;;;;;;;;;;;;;;;-3.80;78.89;98559.84;1755392;81;22690;-85
2021/12/23 06:59:53;;;;;;;;;;;;;;;-3.82;78.90;98564.96;1760647;81;26278;-85
2021/12/23 07:02:19;;;;;;;;;;;;;;;-3.78;78.92;98567.07;1744614;80;24484;-84
2021/12/23 07:04:45;;;;;;;;;;;;;;;-3.77;78.92;98567.92;1740058;81;20221;-85
2021/12/23 07:07:19;;;;;;;;;;;;;;;-3.69;78.98;98568.23;1761265;81;24797;-85
2021/12/23 07:09:45;;;;;;;;;;;;;;;-3.71;78.99;98558.48;1768695;80;22632;-85
2021/12/23 07:12:12;;;;;;;;;;;;;;;-3.68;79.01;98549.48;1764067;80;26165;-83
2021/12/23 07:14:38;;;;;;;;;;;;;;;-3.66;79.04;98549.47;1736798;80;23999;-84
2021/12/23 07:17:07;;;;;;;;;;;;;;;-3.63;79.07;98546.87;1756381;80;20472;-84
2021/12/23 07:19:34;;;;;;;;;;;;;;;-3.60;79.11;98537.90;1768295;80;24481;-85
2021/12/23 07:22:00;;;;;;;;;;;;;;;-3.56;79.12;98530.59;1769761;80;22082;-86
2021/12/23 07:24:26;;;;;;;;;;;;;;;-3.54;79.15;98521.17;1765244;80;26124;-85
2021/12/23 07:26:52;;;;;;;;;;;;;;;-3.49;79.21;98515.59;1769195;80;24312;-85
2021/12/23 07:29:20;;;;;;;;;;;;;;;-3.49;79.22;98517.69;1764519;80;20307;-85
2021/12/23 07:31:46;;;;;;;;;;;;;;;-3.41;79.28;98519.73;1764417;80;24729;-84
2021/12/23 07:34:12;;;;;;;;;;;;;;;-3.33;79.38;98513.25;1761754;80;21934;-84
2021/12/23 07:36:39;;;;;;;;;;;;;;;-3.28;79.43;98522.14;1757142;80;26042;-84
2021/12/23 07:39:10;;;;;;;;;;;;;;;-3.21;79.48;98516.89;1753934;80;24477;-84
2021/12/23 07:41:35;;;;;;;;;;;;;;;-3.14;79.56;98512.55;1758812;80;20336;-84
2021/12/23 07:44:04;;;;;;;;;;;;;;;-3.10;79.58;98518.02;1706908;82;24744;-84
2021/12/23 07:46:32;;;;;;;;;;;;;;;-3.05;79.63;98513.69;1713619;83;21995;-84
2021/12/23 07:48:58;;;;;;;;;;;;;;;-3.01;79.68;98512.36;1703236;81;26757;-84
2021/12/23 07:51:25;;;;;;;;;;;;;;;-2.99;79.71;98511.88;1728826;81;24461;-84
2021/12/23 07:53:56;;;;;;;;;;;;;;;-2.95;79.74;98511.43;1712393;81;20465;-84
2021/12/23 07:56:23;;;;;;;;;;;;;;;-2.84;79.81;98511.27;1728459;81;24759;-84
2021/12/23 07:58:49;;;;;;;;;;;;;;;-2.79;79.86;98509.48;1738871;81;21948;-84
2021/12/23 08:01:16;;;;;;;;;;;;;;;-2.80;79.86;98512.47;1736106;81;26037;-84
2021/12/23 08:03:42;;;;;;;;;;;;;;;-2.76;79.87;98511.54;1731557;81;20309;-84
2021/12/23 08:06:08;;;;;;;;;;;;;;;-2.73;79.90;98509.38;1747383;81;20174;-84
2021/12/23 08:08:34;;;;;;;;;;;;;;;-2.70;79.91;98506.76;1739609;81;24809;-84
2021/12/23 08:11:00;;;;;;;;;;;;;;;-2.66;79.94;98505.83;1734479;81;22030;-84
2021/12/23 08:13:26;;;;;;;;;;;;;;;-2.61;79.95;98505.32;1740691;81;25982;-84
2021/12/23 08:15:52;;;;;;;;;;;;;;;-2.58;79.96;98502.73;1739800;81;24403;-84
2021/12/23 08:18:19;;;;;;;;;;;;;;;-2.55;79.97;98492.41;1739296;81;20210;-82
2021/12/23 08:20:45;;;;;;;;;;;;;;;-2.47;79.96;98493.14;1730330;81;24932;-82
2021/12/23 08:23:11;;;;;;;;;;;;;;;-2.44;79.98;98492.23;1741106;81;21948;-85
2021/12/23 08:25:37;;;;;;;;;;;;;;;-2.41;79.99;98494.33;1738838;81;26049;-83
2021/12/23 08:28:03;;;;;;;;;;;;;;;-2.35;80.02;98492.94;1727675;81;25158;-83
2021/12/23 08:30:34;;;;;;;;;;;;;;;-2.30;80.05;98471.92;1730364;81;20294;-83
2021/12/23 08:32:59;;;;;;;;;;;;;;;-2.30;80.04;98471.07;1732951;81;24750;-83
2021/12/23 08:35:25;;;;;;;;;;;;;;;-2.30;80.03;98473.20;1737126;81;22065;-83
2021/12/23 08:37:51;;;;;;;;;;;;;;;-2.29;80.02;98471.02;1721327;81;25983;-83
2021/12/23 08:40:22;;;;;;;;;;;;;;;-2.26;80.03;98470.98;1730324;82;24490;-83
2021/12/23 08:42:49;;;;;;;;;;;;;;;-2.19;80.09;98465.31;1736341;82;20164;-83
2021/12/23 08:45:16;;;;;;;;;;;;;;;-2.15;80.08;98463.09;1731860;82;24672;-83
2021/12/23 08:47:42;;;;;;;;;;;;;;;-2.13;80.08;98462.17;1720237;82;21810;-83
2021/12/23 08:50:09;;;;;;;;;;;;;;;-2.08;80.11;98451.86;1726757;82;25996;-83
2021/12/23 08:52:36;;;;;;;;;;;;;;;-2.01;80.13;98455.13;1728277;82;24435;-83
2021/12/23 08:55:03;;;;;;;;;;;;;;;-1.95;80.13;98451.16;1718644;81;20294;-83
2021/12/23 08:57:29;;;;;;;;;;;;;;;-1.90;80.14;98435.24;1722909;81;24879;-83
2021/12/23 08:59:55;;;;;;;;;;;;;;;-1.85;80.18;98428.30;1730515;81;20232;-83
2021/12/23 09:02:21;;;;;;;;;;;;;;;-1.80;80.20;98427.80;1727635;81;21375;-83
2021/12/23 09:04:47;;;;;;;;;;;;;;;-1.75;80.20;98423.41;1723651;81;24477;-83
2021/12/23 09:07:14;;;;;;;;;;;;;;;-1.67;80.22;98422.80;1723878;81;20216;-83
2021/12/23 09:09:40;;;;;;;;;;;;;;;-1.63;80.23;98416.72;1728906;81;25626;-84
2021/12/23 09:12:07;;;;;;;;;;;;;;;-1.56;80.25;98406.73;1720415;81;22049;-84
2021/12/23 09:14:34;;;;;;;;;;;;;;;-1.47;80.30;98399.25;1721891;81;26022;-83
2021/12/23 09:17:00;;;;;;;;;;;;;;;-1.43;80.29;98395.33;1716098;81;24515;-83
2021/12/23 09:19:26;;;;;;;;;;;;;;;-1.46;80.24;98388.12;1722523;81;20527;-83
2021/12/23 09:21:53;;;;;;;;;;;;;;;-1.49;80.16;98387.77;1708417;81;24826;-83
2021/12/23 09:24:20;;;;;;;;;;;;;;;-1.44;80.15;98400.05;1682732;83;22030;-83
2021/12/23 09:26:53;;;;;;;;;;;;;;;-1.40;80.17;98405.95;1712945;81;25963;-83
2021/12/23 09:32:40;;;;;;;;;;;;;;;-1.39;80.12;98405.08;1728001;81;24680;-84
2021/12/23 09:34:29;;;;;;;;;;;;;;;-1.36;80.00;98380.17;1726422;81;25535;-84
2021/12/23 09:36:56;;;;;;;;;;;;;;;-1.35;79.96;98370.75;1692772;81;21874;-84
2021/12/23 09:39:22;;;;;;;;;;;;;;;-1.30;79.93;98365.91;1719126;81;26186;-84
2021/12/23 09:41:48;;;;;;;;;;;;;;;-1.30;79.90;98362.06;1722978;81;24515;-83
2021/12/23 09:44:15;;;;;;;;;;;;;;;-1.22;79.90;98355.91;1722118;81;20489;-84
2021/12/23 09:46:42;;;;;;;;;;;;;;;-1.19;79.88;98363.09;1723666;81;24752;-84
2021/12/23 09:49:08;;;;;;;;;;;;;;;-1.19;79.84;98363.09;1731579;81;22109;-84
2021/12/23 09:51:35;;;;;;;;;;;;;;;-1.15;79.83;98364.73;1720531;81;25983;-83
2021/12/23 09:54:03;;;;;;;;;;;;;;;-1.15;79.80;98353.17;1723023;81;24450;-85
2021/12/23 09:56:30;;;;;;;;;;;;;;;-1.13;79.77;98344.12;1714893;83;20252;-84
2021/12/23 09:58:58;;;;;;;;;;;;;;;-1.11;79.72;98340.66;1713201;83;24834;-84
2021/12/23 10:01:28;;;;;;;;;;;;;;;-1.06;79.70;98340.09;1702003;83;22056;-83
2021/12/23 10:03:54;;;;;;;;;;;;;;;-1.02;79.67;98334.43;1704715;83;26103;-83
2021/12/23 10:06:20;;;;;;;;;;;;;;;-1.05;79.65;98322.53;1704794;83;24385;-83
2021/12/23 10:08:48;;;;;;;;;;;;;;;-1.01;79.61;98324.56;1700067;82;20280;-83
2021/12/23 10:11:27;;;;;;;;;;;;;;;-0.96;79.61;98325.29;1700487;83;25466;-84
2021/12/23 10:30:20;;;;;;;;;;;;;;;-0.66;79.61;98258.13;1701745;83;25986;-83
2021/12/23 10:38:06;;;;;;;;;;;;;;;-0.60;79.55;98224.56;1701817;82;24796;-83
2021/12/23 10:40:33;;;;;;;;;;;;;;;-0.59;79.52;98223.20;1703661;82;22003;-83
2021/12/23 10:42:59;;;;;;;;;;;;;;;-0.59;79.48;98212.93;1703996;82;25974;-83
2021/12/23 10:45:27;;;;;;;;;;;;;;;-0.56;79.46;98207.72;1707953;83;24436;-84
2021/12/23 10:48:02;;;;;;;;;;;;;;;-0.52;79.45;98195.17;1713209;81;20190;-83
2021/12/23 10:50:37;;;;;;;;;;;;;;;-0.56;79.42;98193.59;1706440;82;25463;-82
2021/12/23 10:53:06;;;;;;;;;;;;;;;-0.59;79.35;98195.38;1695741;83;22068;-82
2021/12/23 10:58:16;;;;;;;;;;;;;;;-0.54;79.26;98167.81;1726936;81;24374;-83
2021/12/23 11:00:45;;;;;;;;;;;;;;;-0.52;79.22;98160.92;1706399;81;20212;-83
2021/12/23 11:03:24;;;;;;;;;;;;;;;-0.54;79.18;98159.67;1716853;82;24731;-83
2021/12/23 11:05:53;;;;;;;;;;;;;;;-0.51;79.15;98171.16;1710733;81;22099;-83
2021/12/23 11:38:09;;;;;;;;;;;;;;;-0.08;79.06;98087.09;1750465;81;25032;-83
2021/12/23 11:40:50;;;;;;;;;;;;;;;-0.10;78.98;98079.02;1742184;81;20307;-83
2021/12/23 11:45:34;;;;;;;;;;;;;;;-0.12;78.84;98074.39;1753851;81;21984;-83
2021/12/23 11:48:05;;;;;;;;;;;;;;;-0.05;78.87;98071.98;1743011;81;25787;-83
2021/12/23 11:50:41;;;;;;;;;;;;;;;0.03;78.85;98057.59;1751053;81;24504;-83
2021/12/23 11:53:02;;;;;;;;;;;;;;;0.06;78.87;98054.46;1755095;80;20339;-83
2021/12/23 11:55:28;;;;;;;;;;;;;;;0.12;78.89;98054.26;1757175;81;24785;-83
2021/12/23 11:57:54;;;;;;;;;;;;;;;0.18;78.88;98046.33;1754469;81;22135;-83
2021/12/23 12:00:32;;;;;;;;;;;;;;;0.19;78.86;98042.87;1755071;81;26550;-83
2021/12/23 12:02:59;;;;;;;;;;;;;;;0.27;78.85;98047.29;1742688;79;24507;-83
2021/12/23 12:05:25;;;;;;;;;;;;;;;0.33;78.85;98041.93;1744322;81;20902;-82
2021/12/23 12:08:06;;;;;;;;;;;;;;;0.36;78.83;98041.84;1750881;80;24729;-83
2021/12/23 12:10:33;;;;;;;;;;;;;;;0.36;78.80;98046.14;1686652;81;21972;-83
2021/12/23 12:13:04;;;;;;;;;;;;;;;0.36;78.75;98035.41;1741322;81;26693;-83
2021/12/23 12:15:43;;;;;;;;;;;;;;;0.38;78.71;98033.59;1735187;81;24531;-83
2021/12/23 12:18:10;;;;;;;;;;;;;;;0.39;78.66;98028.84;1751179;81;20432;-83
2021/12/23 12:20:43;;;;;;;;;;;;;;;0.43;78.63;98025.73;1753917;81;24753;-83
2021/12/23 12:23:07;;;;;;;;;;;;;;;0.44;78.56;98031.73;1755570;81;22083;-83
2021/12/23 12:25:41;;;;;;;;;;;;;;;0.50;78.52;98039.20;1756610;80;26003;-83
2021/12/23 12:28:09;;;;;;;;;;;;;;;0.53;78.50;98036.53;1754032;80;24841;-83
2021/12/23 12:30:37;;;;;;;;;;;;;;;0.51;78.40;98034.45;1745787;81;20274;-84
2021/12/23 12:33:03;;;;;;;;;;;;;;;0.49;78.34;98020.81;1756817;81;24840;-83
2021/12/23 12:35:29;;;;;;;;;;;;;;;0.50;78.28;98011.73;1742463;81;21971;-83
2021/12/23 12:37:57;;;;;;;;;;;;;;;0.53;78.23;98015.94;1745671;81;26073;-83
2021/12/23 12:40:28;;;;;;;;;;;;;;;0.56;78.21;98009.38;1743596;81;25116;-83
2021/12/23 12:42:54;;;;;;;;;;;;;;;0.59;78.17;98009.28;1756394;81;20627;-83
2021/12/23 12:45:26;;;;;;;;;;;;;;;0.58;78.09;98009.73;1758075;80;24708;-83
2021/12/23 12:47:54;;;;;;;;;;;;;;;0.54;78.02;98002.18;1747896;81;22063;-83
2021/12/23 12:50:19;;;;;;;;;;;;;;;0.51;77.94;97997.13;1758634;81;26785;-83
2021/12/23 12:52:47;;;;;;;;;;;;;;;0.53;77.90;98003.07;1755853;81;23882;-83
2021/12/23 12:55:15;;;;;;;;;;;;;;;0.55;77.83;97994.82;1761496;81;20275;-83
2021/12/23 12:57:43;;;;;;;;;;;;;;;0.51;77.77;97982.52;1750728;81;24586;-83
2021/12/23 13:00:28;;;;;;;;;;;;;;;0.50;77.68;97985.14;1708433;82;20261;-83
2021/12/23 13:02:55;;;;;;;;;;;;;;;0.50;77.63;97980.00;1741946;81;26066;-83
2021/12/23 13:05:26;;;;;;;;;;;;;;;0.46;77.57;97984.43;1743108;81;25171;-83
2021/12/23 13:07:52;;;;;;;;;;;;;;;0.47;77.50;97981.41;1735564;81;20224;-83
2021/12/23 13:10:21;;;;;;;;;;;;;;;0.51;77.48;97976.09;1737731;81;24808;-83
2021/12/23 13:12:49;;;;;;;;;;;;;;;0.52;77.44;97962.33;1737280;81;22057;-83
2021/12/23 13:15:23;;;;;;;;;;;;;;;0.58;77.46;97961.26;1744009;80;26061;-83
2021/12/23 13:17:54;;;;;;;;;;;;;;;0.65;77.50;97951.13;1739397;81;25392;-83
2021/12/23 13:20:39;;;;;;;;;;;;;;;0.64;77.52;97934.84;1771351;80;20331;-83
2021/12/23 13:23:06;;;;;;;;;;;;;;;0.67;77.54;97931.30;1740700;81;25593;-83
2021/12/23 13:25:36;;;;;;;;;;;;;;;0.63;77.49;97932.31;1749004;81;22613;-83
2021/12/23 13:28:06;;;;;;;;;;;;;;;0.59;77.44;97927.73;1745294;81;26607;-83
2021/12/23 13:30:34;;;;;;;;;;;;;;;0.57;77.38;97924.82;1751241;81;24557;-83
2021/12/23 13:33:04;;;;;;;;;;;;;;;0.52;77.26;97911.28;1752736;81;20154;-83
2021/12/23 13:35:31;;;;;;;;;;;;;;;0.53;77.23;97908.66;1744488;81;24812;-83
2021/12/23 13:37:57;;;;;;;;;;;;;;;0.53;77.17;97901.39;1747739;81;21943;-83
2021/12/23 13:40:32;;;;;;;;;;;;;;;0.47;77.08;97886.17;1746687;81;26547;-83
2021/12/23 13:42:59;;;;;;;;;;;;;;;0.49;77.03;97885.68;1752925;81;24513;-83
2021/12/23 13:45:26;;;;;;;;;;;;;;;0.48;76.99;97884.00;1745568;80;20556;-83
2021/12/23 13:47:53;;;;;;;;;;;;;;;0.45;76.93;97873.80;1749990;80;26158;-83
2021/12/23 13:50:20;;;;;;;;;;;;;;;0.39;76.84;97870.56;1762402;80;21988;-83
2021/12/23 13:52:48;;;;;;;;;;;;;;;0.37;76.75;97872.83;1746694;81;26046;-83
2021/12/23 13:55:16;;;;;;;;;;;;;;;0.33;76.64;97861.79;1741113;81;25163;-83